Middle Georgia Regional Airport Macon US
ICAO: KMCN
IATA: MCN
Category: Medium
Scheduled Services: Yes

Elevation: 354 ft
TransAlt. 18000 ft.

Airport Communications:
ATLANTA APP/DEP:118.95
ASOS:120.775
ATIS:120.775
CTAF:128.2
GND:121.65
MACON RDO:122.2
MACON TWR:128.2
UNICOM:122.95

KMCN Zoom In..

Runways:

(A) RW 05 length 6501 ft width 150 ft
ILS 109.50 / hdg 51

(B) RW 13 length 5000 ft width 150 ft
---- / hdg 133

(C) RW 23 length 6501 ft width 150 ft
---- / hdg 231

(D) RW 31 length 5000 ft width 150 ft
---- / hdg 313

Location; KMCN
Day. 23 / Time. 03.19 Zulu
* Altimeter: 29.81
* Temperature: 23° c. 73.4°f.
* Wind from: 350° Speed 23 kn with Gusts up to 31 kn.
Dewpoint: 21° c.
Visibility: 10 Statute Miles.
Clouds: Few 2500 ft.
Clouds: Scattered 3100 ft.
Clouds: Broken 5500 ft.
Conditions: Thunderstorm.

KMCN 230319Z AUTO 35023G31KT 10SM TS FEW025 SCT031 BKN055 23/21 A2981 RMK AO2 PK WND 35031/0316 LTG DSNT W-NE TSB13 T02330206


Wind From 350°
Speed 23 kn.

 
 
jpsmedia.com for Web Design worldairports.se 2018   terms of use